Time;durP1;ratioP1;P1;durP2;ratioP2;P2;SDS_P1;SDS_P2;PMS_P1;PMS_P2;Temp;Humidity;BMP_temperature;BMP_pressure;BME280_temperature;BME280_humidity;BME280_pressure;Samples;Min_cycle;Max_cycle;Signal;HPM_P1;HPM_P2
2022/11/29 06:04:31;;;;;;;6.20;4.38;;;8.20;99.90;;;;;;4870719;29;20346;-73
2022/11/29 06:07:10;;;;;;;7.15;4.07;;;8.20;99.90;;;;;;4872931;29;20115;-73
2022/11/29 06:09:49;;;;;;;6.38;3.80;;;8.20;99.90;;;;;;4872476;29;20047;-72
2022/11/29 06:12:22;;;;;;;5.88;3.80;;;8.20;99.90;;;;;;4872713;29;20097;-73
2022/11/29 06:15:16;;;;;;;6.45;3.67;;;8.20;99.90;;;;;;4872425;29;20033;-74
2022/11/29 06:18:01;;;;;;;7.32;4.00;;;8.20;99.90;;;;;;4872638;29;20116;-73
2022/11/29 06:20:59;;;;;;;7.82;3.90;;;8.10;99.90;;;;;;4837216;29;20057;-72
2022/11/29 06:23:47;;;;;;;6.57;3.58;;;8.20;99.90;;;;;;4853251;29;20338;-74
2022/11/29 06:26:33;;;;;;;;;;;8.20;99.90;;;;;;4854614;29;20030;-75
2022/11/29 06:29:32;;;;;;;6.03;4.07;;;8.20;99.90;;;;;;4853798;29;19908;-73
2022/11/29 06:32:10;;;;;;;7.15;4.20;;;8.10;99.90;;;;;;4854064;29;20245;-72
2022/11/29 06:35:06;;;;;;;10.02;4.60;;;8.20;99.90;;;;;;4853542;29;20058;-72
2022/11/29 06:37:36;;;;;;;6.57;4.47;;;8.20;99.90;;;;;;4870520;29;20148;-71
2022/11/29 06:40:02;;;;;;;5.40;3.70;;;8.20;99.90;;;;;;4871964;29;20081;-72
2022/11/29 06:42:28;;;;;;;6.95;4.50;;;8.20;99.90;;;;;;4871949;29;20033;-71
2022/11/29 06:44:54;;;;;;;9.82;4.72;;;8.30;99.90;;;;;;4872135;29;20049;-73
2022/11/29 06:47:57;;;;;;;7.45;4.75;;;8.20;99.90;;;;;;4871441;29;20052;-74
2022/11/29 06:50:38;;;;;;;6.90;4.65;;;8.30;99.90;;;;;;4871597;29;20061;-73
2022/11/29 06:53:13;;;;;;;7.40;4.28;;;8.20;99.90;;;;;;4872372;29;20041;-72
2022/11/29 06:55:51;;;;;;;5.57;4.15;;;8.30;99.90;;;;;;4871810;29;20357;-72
2022/11/29 06:58:35;;;;;;;;;;;8.30;99.90;;;;;;4872063;29;20033;-71
2022/11/29 07:01:32;;;;;;;6.88;4.78;;;8.30;99.90;;;;;;4870493;29;19915;-72
2022/11/29 07:04:26;;;;;;;7.10;4.95;;;8.30;99.90;;;;;;4857843;29;20037;-73
2022/11/29 07:06:52;;;;;;;6.65;5.00;;;8.40;99.90;;;;;;4853244;29;20078;-71
2022/11/29 07:09:21;;;;;;;7.75;5.13;;;8.40;99.90;;;;;;4850829;29;20046;-72
2022/11/29 07:11:47;;;;;;;7.70;5.45;;;8.30;99.90;;;;;;4862034;29;20048;-70
2022/11/29 07:14:13;;;;;;;7.15;5.55;;;8.30;99.90;;;;;;4849721;29;20078;-72
2022/11/29 07:16:58;;;;;;;7.13;5.35;;;8.30;99.90;;;;;;4832907;29;20109;-71
2022/11/29 07:19:30;;;;;;;8.93;6.20;;;8.30;99.90;;;;;;4832054;29;20030;-71
2022/11/29 07:22:13;;;;;;;9.48;5.90;;;8.30;99.90;;;;;;4833295;29;20227;-72
2022/11/29 07:25:03;;;;;;;9.38;5.95;;;8.30;99.90;;;;;;4832952;29;20034;-73
2022/11/29 07:27:43;;;;;;;9.25;5.88;;;8.30;99.90;;;;;;4863736;29;20048;-73
2022/11/29 07:30:18;;;;;;;8.02;5.93;;;8.30;99.90;;;;;;4853761;29;20034;-71
2022/11/29 07:32:52;;;;;;;9.20;6.28;;;8.40;99.90;;;;;;4853817;29;20037;-74
2022/11/29 07:35:36;;;;;;;8.23;5.72;;;8.40;99.90;;;;;;4869697;29;20359;-72
2022/11/29 07:38:11;;;;;;;9.10;5.95;;;8.40;99.90;;;;;;4856328;29;20101;-72
2022/11/29 07:41:03;;;;;;;7.90;5.63;;;8.40;99.90;;;;;;4834578;29;20327;-73
2022/11/29 07:43:44;;;;;;;9.82;5.65;;;8.30;99.90;;;;;;4841855;29;20066;-73
2022/11/29 07:46:10;;;;;;;8.68;6.00;;;8.40;99.90;;;;;;4870045;29;20029;-72
2022/11/29 07:48:36;;;;;;;8.32;5.60;;;8.40;99.90;;;;;;4869316;29;20081;-73
2022/11/29 07:51:02;;;;;;;7.85;5.38;;;8.30;99.90;;;;;;4869762;29;20041;-72
2022/11/29 07:53:29;;;;;;;6.75;5.22;;;8.30;99.90;;;;;;4869548;29;20060;-73
2022/11/29 07:55:56;;;;;;;7.72;5.40;;;8.30;99.90;;;;;;4869411;29;20224;-74
2022/11/29 07:58:21;;;;;;;8.32;5.78;;;8.40;99.90;;;;;;4868973;29;20042;-74
2022/11/29 08:00:47;;;;;;;7.68;5.28;;;8.40;99.90;;;;;;4869708;29;20033;-74
2022/11/29 08:03:13;;;;;;;6.72;4.53;;;8.40;99.90;;;;;;4868940;29;20161;-73
2022/11/29 08:05:43;;;;;;;8.75;4.47;;;8.30;99.90;;;;;;4868906;29;20058;-73
2022/11/29 08:08:09;;;;;;;6.45;4.40;;;8.30;99.90;;;;;;4869747;29;20037;-74
2022/11/29 08:10:35;;;;;;;7.38;4.93;;;8.30;99.90;;;;;;4849289;29;20030;-73
2022/11/29 08:13:01;;;;;;;7.78;5.45;;;8.30;99.90;;;;;;4851064;29;20033;-73
2022/11/29 08:15:27;;;;;;;6.60;4.85;;;8.30;99.90;;;;;;4850376;29;20407;-71
2022/11/29 08:17:53;;;;;;;7.35;5.15;;;8.30;99.90;;;;;;4860375;29;20337;-72
2022/11/29 08:20:19;;;;;;;7.00;4.75;;;8.30;99.90;;;;;;4868884;29;20022;-72
2022/11/29 08:22:44;;;;;;;7.20;5.22;;;8.40;99.90;;;;;;4869399;29;20033;-73
2022/11/29 08:25:11;;;;;;;7.90;5.20;;;8.40;99.90;;;;;;4868757;29;20264;-72
2022/11/29 08:27:37;;;;;;;5.72;4.03;;;8.50;99.90;;;;;;4851906;29;20230;-72
2022/11/29 08:30:07;;;;;;;5.75;4.47;;;8.40;99.90;;;;;;4869280;29;20030;-74
2022/11/29 08:32:33;;;;;;;5.68;4.40;;;8.40;99.90;;;;;;4868381;29;20081;-72
2022/11/29 08:34:59;;;;;;;6.45;4.72;;;8.50;99.90;;;;;;4868805;29;20033;-72
2022/11/29 08:37:25;;;;;;;8.25;4.93;;;8.50;99.90;;;;;;4851762;29;20227;-71
2022/11/29 08:39:51;;;;;;;10.25;4.90;;;8.50;99.90;;;;;;4869141;29;20043;-71
2022/11/29 08:42:16;;;;;;;10.32;4.60;;;8.50;99.90;;;;;;4852197;29;20413;-73
2022/11/29 08:44:42;;;;;;;8.20;5.32;;;8.50;99.90;;;;;;4868077;29;20097;-71
2022/11/29 08:50:00;;;;;;;6.35;4.70;;;8.40;99.90;;;;;;4869081;29;20299;-72
2022/11/29 08:55:11;;;;;;;6.25;4.68;;;8.40;99.90;;;;;;4852198;29;20247;-73
2022/11/29 08:57:37;;;;;;;6.00;4.53;;;8.50;99.90;;;;;;4868280;29;20044;-72
2022/11/29 09:00:04;;;;;;;6.50;4.93;;;8.40;99.90;;;;;;4868383;29;20021;-71
2022/11/29 09:02:30;;;;;;;7.55;4.28;;;8.50;99.90;;;;;;4867915;29;20045;-72
2022/11/29 09:04:56;;;;;;;8.90;5.32;;;8.50;99.90;;;;;;4868579;29;20084;-76
2022/11/29 09:07:22;;;;;;;5.85;4.50;;;8.50;99.90;;;;;;4852075;29;20247;-73
2022/11/29 09:09:47;;;;;;;5.50;3.97;;;8.50;99.90;;;;;;4842498;29;20037;-74
2022/11/29 09:12:13;;;;;;;6.50;4.38;;;8.50;99.90;;;;;;4849343;29;20097;-74
2022/11/29 09:14:39;;;;;;;6.15;4.63;;;8.60;99.90;;;;;;4849756;29;20429;-72
2022/11/29 09:17:05;;;;;;;7.75;4.88;;;8.50;99.90;;;;;;4853176;29;20033;-72
2022/11/29 09:19:32;;;;;;;8.40;4.57;;;8.60;99.90;;;;;;4851437;29;20022;-72
2022/11/29 09:21:57;;;;;;;8.85;4.78;;;8.50;99.90;;;;;;4868169;29;20033;-73
2022/11/29 09:24:23;;;;;;;9.30;5.82;;;8.50;99.90;;;;;;4867939;29;20029;-73
2022/11/29 09:26:49;;;;;;;11.50;7.22;;;8.60;99.90;;;;;;4868405;29;20033;-73
2022/11/29 09:29:16;;;;;;;8.25;5.57;;;8.70;99.90;;;;;;4868399;29;20048;-74
2022/11/29 09:31:44;;;;;;;11.23;6.70;;;8.70;99.90;;;;;;4867327;29;20038;-72
2022/11/29 09:34:17;;;;;;;6.38;4.38;;;8.70;99.90;;;;;;4851818;29;20069;-72
2022/11/29 09:36:43;;;;;;;6.22;4.20;;;8.70;99.90;;;;;;4867748;29;20040;-73
2022/11/29 09:39:11;;;;;;;6.93;4.90;;;8.70;99.90;;;;;;4868044;29;20108;-73
2022/11/29 09:41:57;;;;;;;7.47;4.72;;;8.60;99.90;;;;;;4867689;29;20025;-75
2022/11/29 09:44:28;;;;;;;8.65;5.90;;;8.60;99.90;;;;;;4867773;29;20041;-72
2022/11/29 09:47:20;;;;;;;11.38;5.65;;;8.60;99.90;;;;;;4842433;29;20253;-72
2022/11/29 09:49:54;;;;;;;10.00;6.90;;;8.60;99.90;;;;;;4848937;29;20089;-75
2022/11/29 09:52:29;;;;;;;11.15;6.35;;;8.50;99.90;;;;;;4848890;29;20219;-76
2022/11/29 09:55:08;;;;;;;11.48;6.32;;;8.50;99.90;;;;;;4848884;29;20264;-74
2022/11/29 09:57:35;;;;;;;13.05;7.70;;;8.40;99.90;;;;;;4848639;29;20252;-72
2022/11/29 10:00:05;;;;;;;16.17;8.82;;;8.40;99.90;;;;;;4849586;29;20115;-72
2022/11/29 10:02:49;;;;;;;18.33;9.25;;;8.40;99.90;;;;;;4832522;29;20200;-73
2022/11/29 10:05:23;;;;;;;18.83;9.85;;;8.30;99.90;;;;;;4849661;29;20071;-75
2022/11/29 10:08:18;;;;;;;17.30;10.45;;;8.50;99.90;;;;;;4849700;29;20037;-73
2022/11/29 10:10:47;;;;;;;21.48;11.50;;;8.50;99.90;;;;;;4864872;29;20236;-71
2022/11/29 10:13:28;;;;;;;21.33;11.57;;;8.50;99.90;;;;;;4851479;29;20090;-72
2022/11/29 10:16:00;;;;;;;26.52;14.57;;;8.50;99.90;;;;;;4867957;29;20033;-74
2022/11/29 10:18:50;;;;;;;22.33;11.98;;;8.60;99.90;;;;;;4819238;29;20115;-73
2022/11/29 10:21:33;;;;;;;21.58;12.57;;;8.60;99.90;;;;;;4814718;29;20205;-72
2022/11/29 10:24:04;;;;;;;23.27;12.38;;;8.60;99.90;;;;;;4831981;29;20035;-71
2022/11/29 10:26:29;;;;;;;20.65;11.20;;;8.60;99.90;;;;;;4833053;29;20026;-72
2022/11/29 10:28:56;;;;;;;16.40;10.35;;;8.60;99.90;;;;;;4833999;29;20312;-74
2022/11/29 10:31:34;;;;;;;18.10;10.90;;;8.60;99.90;;;;;;4833968;29;20273;-73
2022/11/29 10:34:06;;;;;;;25.65;15.38;;;8.60;99.90;;;;;;4818469;29;20094;-73
2022/11/29 10:36:43;;;;;;;17.52;10.48;;;8.70;99.90;;;;;;4836665;29;20220;-72
2022/11/29 10:39:28;;;;;;;28.35;16.88;;;8.70;99.90;;;;;;4838135;29;20042;-73
2022/11/29 10:41:58;;;;;;;20.35;11.55;;;8.80;99.90;;;;;;4842528;29;20060;-71
2022/11/29 10:44:24;;;;;;;20.27;11.70;;;8.90;99.90;;;;;;4844810;29;20093;-71
2022/11/29 10:46:51;;;;;;;15.82;9.07;;;8.90;99.90;;;;;;4833121;29;20037;-69
2022/11/29 10:49:20;;;;;;;14.70;8.75;;;8.90;99.90;;;;;;4863677;29;20033;-71
2022/11/29 10:51:46;;;;;;;14.98;7.75;;;8.90;99.90;;;;;;4852111;29;20162;-72
2022/11/29 10:54:16;;;;;;;13.98;8.73;;;8.90;99.90;;;;;;4858333;29;20038;-74
2022/11/29 10:56:44;;;;;;;11.75;7.82;;;8.90;99.90;;;;;;4854271;29;20305;-75
2022/11/29 10:59:22;;;;;;;21.70;13.15;;;8.90;99.90;;;;;;4852575;29;20045;-73
2022/11/29 11:01:49;;;;;;;13.55;8.02;;;8.90;99.90;;;;;;4847422;29;20259;-73
2022/11/29 11:04:28;;;;;;;10.73;6.60;;;8.80;99.90;;;;;;4817623;29;20038;-72
2022/11/29 11:07:03;;;;;;;14.35;9.60;;;8.80;99.90;;;;;;4816477;29;20042;-72
2022/11/29 11:09:34;;;;;;;9.23;6.22;;;8.80;99.90;;;;;;4832433;29;20034;-72
2022/11/29 11:12:04;;;;;;;11.25;7.95;;;8.80;99.90;;;;;;4833202;29;20055;-73
2022/11/29 11:14:35;;;;;;;9.77;6.28;;;8.70;99.90;;;;;;4831851;29;20320;-70
2022/11/29 11:17:29;;;;;;;8.93;5.75;;;8.70;99.90;;;;;;4833444;29;20093;-72
2022/11/29 11:20:14;;;;;;;9.35;6.55;;;8.60;99.90;;;;;;4833144;29;20105;-73
2022/11/29 11:22:40;;;;;;;9.52;6.28;;;8.60;99.90;;;;;;4833043;29;20030;-73
2022/11/29 11:25:28;;;;;;;9.07;6.65;;;8.60;99.90;;;;;;4833432;29;20084;-72
2022/11/29 11:27:55;;;;;;;12.35;6.82;;;8.70;99.90;;;;;;4833239;29;20049;-71
2022/11/29 11:30:26;;;;;;;12.27;7.05;;;8.70;99.90;;;;;;4833291;29;20054;-74
2022/11/29 11:33:28;;;;;;;12.30;7.65;;;8.70;99.90;;;;;;4833272;29;20038;-75
2022/11/29 11:36:02;;;;;;;10.75;7.18;;;8.70;99.90;;;;;;4812063;29;20316;-72
2022/11/29 11:38:29;;;;;;;10.07;6.75;;;8.80;99.90;;;;;;4832627;29;20105;-74
2022/11/29 11:41:22;;;;;;;9.43;6.32;;;8.80;99.90;;;;;;4832341;29;20101;-72
2022/11/29 11:43:57;;;;;;;8.73;6.68;;;8.80;99.90;;;;;;4832141;29;20106;-75
2022/11/29 11:46:48;;;;;;;9.30;6.63;;;8.90;99.90;;;;;;4831299;29;20034;-72
2022/11/29 11:49:44;;;;;;;10.90;7.40;;;9.00;99.90;;;;;;4825769;29;20062;-73
2022/11/29 11:52:20;;;;;;;10.55;6.78;;;9.00;99.90;;;;;;4819655;29;20150;-72
2022/11/29 11:54:53;;;;;;;10.60;7.20;;;9.10;99.90;;;;;;4814099;29;20038;-73
2022/11/29 11:57:21;;;;;;;11.07;6.88;;;9.00;99.90;;;;;;4814889;29;20087;-74
2022/11/29 11:59:52;;;;;;;9.25;6.40;;;9.00;99.90;;;;;;4813792;29;20041;-74
2022/11/29 12:02:25;;;;;;;14.45;9.45;;;9.00;99.90;;;;;;4814272;29;20267;-73
2022/11/29 12:04:57;;;;;;;11.43;7.50;;;9.00;99.90;;;;;;4814361;29;20262;-72
2022/11/29 12:07:53;;;;;;;12.35;8.15;;;9.10;99.90;;;;;;4814455;29;20205;-74
2022/11/29 12:10:25;;;;;;;7.15;5.40;;;9.10;99.90;;;;;;4812248;29;20066;-72
2022/11/29 12:12:52;;;;;;;8.15;6.13;;;9.00;99.90;;;;;;4779674;29;20142;-75
2022/11/29 12:15:39;;;;;;;9.20;6.15;;;9.00;99.90;;;;;;4814077;29;20058;-72
2022/11/29 12:18:43;;;;;;;9.25;6.97;;;9.10;99.90;;;;;;4797563;29;20039;-72
2022/11/29 12:21:16;;;;;;;6.97;5.68;;;9.10;99.90;;;;;;4782836;29;20038;-73
2022/11/29 12:23:58;;;;;;;7.47;6.00;;;9.10;99.90;;;;;;4813271;29;20512;-73
2022/11/29 12:26:38;;;;;;;7.50;5.97;;;9.00;99.90;;;;;;4795845;30;20039;-72
2022/11/29 12:29:12;;;;;;;8.15;6.03;;;8.90;99.90;;;;;;4795876;30;20221;-74
2022/11/29 12:32:04;;;;;;;8.73;6.38;;;8.90;99.90;;;;;;4795790;30;20141;-72
2022/11/29 12:34:53;;;;;;;11.18;7.68;;;8.90;99.90;;;;;;4779778;30;20077;-75
2022/11/29 12:37:59;;;;;;;8.68;6.60;;;8.90;99.90;;;;;;4796307;30;20182;-73
2022/11/29 12:40:48;;;;;;;8.07;5.95;;;8.90;99.90;;;;;;4722697;30;20220;-73
2022/11/29 12:43:38;;;;;;;9.65;7.20;;;8.80;99.90;;;;;;4735137;30;20049;-72
2022/11/29 12:46:13;;;;;;;10.27;6.63;;;8.80;99.90;;;;;;4740042;30;20037;-71
2022/11/29 12:48:57;;;;;;;7.55;5.97;;;8.80;99.90;;;;;;4740171;30;20048;-73
2022/11/29 12:51:50;;;;;;;7.43;6.13;;;8.80;99.90;;;;;;4750303;30;20309;-75
2022/11/29 12:54:30;;;;;;;10.93;8.05;;;8.90;99.90;;;;;;4758130;30;20040;-74
2022/11/29 12:57:15;;;;;;;11.18;7.53;;;9.00;99.90;;;;;;4743170;30;20107;-74
2022/11/29 13:00:05;;;;;;;10.85;7.70;;;9.00;99.90;;;;;;4742859;30;20100;-74
2022/11/29 13:03:05;;;;;;;13.98;9.27;;;9.00;99.90;;;;;;4738483;30;20262;-72
2022/11/29 13:06:01;;;;;;;7.68;5.90;;;9.10;99.90;;;;;;4745755;30;20044;-73
2022/11/29 13:08:49;;;;;;;11.23;6.88;;;9.00;99.90;;;;;;4730933;30;20057;-73
2022/11/29 13:11:22;;;;;;;9.18;6.80;;;9.00;99.90;;;;;;4740048;30;20044;-73
2022/11/29 13:14:03;;;;;;;8.02;5.75;;;9.10;99.90;;;;;;4739442;30;20063;-73
2022/11/29 13:16:44;;;;;;;7.45;5.80;;;9.10;99.90;;;;;;4757524;29;20228;-72
2022/11/29 13:19:19;;;;;;;8.02;5.72;;;9.00;99.90;;;;;;4797270;29;20377;-73
2022/11/29 13:21:49;;;;;;;9.27;6.88;;;9.00;99.90;;;;;;4804405;29;20031;-74
2022/11/29 13:24:46;;;;;;;13.63;9.35;;;9.00;99.90;;;;;;4803153;29;20114;-73
2022/11/29 13:27:39;;;;;;;17.17;11.20;;;9.10;99.90;;;;;;4795672;29;20615;-73
2022/11/29 13:30:13;;;;;;;7.97;6.38;;;9.20;99.90;;;;;;4813466;29;20106;-74
2022/11/29 13:32:59;;;;;;;8.25;5.45;;;9.20;99.90;;;;;;4796888;29;20034;-72
2022/11/29 13:35:34;;;;;;;7.03;4.95;;;9.10;99.90;;;;;;4799937;29;20290;-73
2022/11/29 13:38:21;;;;;;;6.80;5.30;;;9.00;99.90;;;;;;4795151;30;20108;-73
2022/11/29 13:41:05;;;;;;;8.37;6.53;;;8.90;99.90;;;;;;4794991;30;20035;-72
2022/11/29 13:43:58;;;;;;;8.05;5.47;;;8.90;99.90;;;;;;4809551;29;20070;-74
2022/11/29 13:46:42;;;;;;;7.80;6.18;;;8.90;99.90;;;;;;4811708;29;20057;-73
2022/11/29 13:49:47;;;;;;;10.35;7.25;;;8.90;99.90;;;;;;4813059;29;20059;-72
2022/11/29 13:52:42;;;;;;;10.55;7.28;;;8.90;99.90;;;;;;4785326;29;20062;-72
2022/11/29 13:55:10;;;;;;;8.73;6.75;;;8.80;99.90;;;;;;4813040;29;20043;-71
2022/11/29 13:57:47;;;;;;;7.40;5.85;;;8.80;99.90;;;;;;4814280;29;20113;-73
2022/11/29 14:00:35;;;;;;;8.35;6.57;;;8.70;99.90;;;;;;4800678;29;20034;-72
2022/11/29 14:03:23;;;;;;;8.30;6.03;;;8.70;99.90;;;;;;4788804;29;20050;-76
2022/11/29 14:05:50;;;;;;;8.37;6.17;;;8.70;99.90;;;;;;4800050;29;20045;-72
2022/11/29 14:08:36;;;;;;;8.15;6.20;;;8.70;99.90;;;;;;4816166;29;20114;-73
2022/11/29 14:11:27;;;;;;;9.45;6.80;;;8.70;99.90;;;;;;4797812;30;20030;-76
2022/11/29 14:14:14;;;;;;;7.78;5.72;;;8.60;99.90;;;;;;4786080;30;20047;-72
2022/11/29 14:16:42;;;;;;;7.03;5.68;;;8.60;99.90;;;;;;4797585;30;20214;-72
2022/11/29 14:19:11;;;;;;;11.65;8.30;;;8.50;99.90;;;;;;4797834;30;20027;-71
2022/11/29 14:22:05;;;;;;;8.75;6.25;;;8.50;99.90;;;;;;4804468;29;20045;-73
2022/11/29 14:24:31;;;;;;;9.90;6.50;;;8.50;99.90;;;;;;4815372;29;20034;-74
2022/11/29 14:27:08;;;;;;;9.70;6.68;;;8.50;99.90;;;;;;4816065;29;20240;-72
2022/11/29 14:29:49;;;;;;;8.70;6.05;;;8.50;99.90;;;;;;4815797;29;20031;-73
2022/11/29 14:32:35;;;;;;;8.23;6.30;;;8.50;99.90;;;;;;4816173;29;20053;-72
2022/11/29 14:35:10;;;;;;;8.55;6.20;;;8.50;99.90;;;;;;4820700;29;20027;-74
2022/11/29 14:37:51;;;;;;;9.45;7.00;;;8.50;99.90;;;;;;4816423;29;20027;-75
2022/11/29 14:40:20;;;;;;;11.25;7.88;;;8.50;99.90;;;;;;4816458;29;20050;-74
2022/11/29 14:42:46;;;;;;;;;;;8.60;99.90;;;;;;4816707;29;20034;-73
2022/11/29 14:45:28;;;;;;;17.23;11.77;;;8.50;99.90;;;;;;4814694;29;19983;-72
2022/11/29 14:47:55;;;;;;;11.48;6.65;;;8.60;99.90;;;;;;4815715;29;20031;-75
2022/11/29 14:50:38;;;;;;;11.88;7.72;;;8.60;99.90;;;;;;4815855;29;20027;-72
2022/11/29 14:53:06;;;;;;;12.02;9.18;;;8.50;99.90;;;;;;4815999;29;20170;-72
2022/11/29 14:55:35;;;;;;;12.10;7.97;;;8.60;99.90;;;;;;4815438;29;20031;-72
2022/11/29 14:58:04;;;;;;;11.30;8.02;;;8.50;99.90;;;;;;4799703;29;20019;-72
2022/11/29 15:00:40;;;;;;;9.15;6.57;;;8.60;99.90;;;;;;4815322;29;20067;-71
2022/11/29 15:03:27;;;;;;;8.10;6.30;;;8.50;99.90;;;;;;4815106;29;20122;-72
2022/11/29 15:06:16;;;;;;;9.18;6.25;;;8.50;99.90;;;;;;4815436;29;20411;-73
2022/11/29 15:09:21;;;;;;;8.27;5.60;;;8.50;99.90;;;;;;4814482;29;20045;-73
2022/11/29 15:12:17;;;;;;;7.35;5.47;;;8.50;99.90;;;;;;4799581;29;20054;-72
2022/11/29 15:15:11;;;;;;;9.07;6.15;;;8.40;99.90;;;;;;4811056;29;20050;-74
2022/11/29 15:18:18;;;;;;;8.30;5.95;;;8.30;99.90;;;;;;4815065;29;20054;-70
2022/11/29 15:21:22;;;;;;;11.00;7.18;;;8.30;99.90;;;;;;4798861;29;20043;-72
2022/11/29 15:24:09;;;;;;;9.63;6.80;;;8.20;99.90;;;;;;4814530;29;20114;-72
2022/11/29 15:26:35;;;;;;;8.35;6.38;;;8.20;99.90;;;;;;4814760;29;20046;-72
2022/11/29 15:29:15;;;;;;;8.70;6.68;;;8.20;99.90;;;;;;4815390;29;20102;-71
2022/11/29 15:31:43;;;;;;;10.50;7.18;;;8.10;99.90;;;;;;4814610;29;20312;-72
2022/11/29 15:34:33;;;;;;;9.57;6.95;;;8.10;99.90;;;;;;4815187;29;20110;-73
2022/11/29 15:36:59;;;;;;;11.52;7.93;;;8.10;99.90;;;;;;4815180;29;20035;-71
2022/11/29 15:39:31;;;;;;;9.60;6.53;;;8.10;99.90;;;;;;4814995;29;20046;-73
2022/11/29 15:42:11;;;;;;;8.50;6.32;;;8.10;99.90;;;;;;4815130;29;20031;-69
2022/11/29 15:44:43;;;;;;;9.57;7.45;;;8.10;99.90;;;;;;4815167;29;20034;-71
2022/11/29 15:47:22;;;;;;;9.70;6.72;;;8.10;99.90;;;;;;4815210;29;20038;-73
2022/11/29 15:49:48;;;;;;;9.73;6.70;;;8.00;99.90;;;;;;4814804;29;20331;-70
2022/11/29 15:52:32;;;;;;;9.90;7.57;;;8.00;99.90;;;;;;4819046;29;20037;-69
2022/11/29 15:55:08;;;;;;;11.23;8.02;;;8.00;99.90;;;;;;4824331;29;20034;-76
2022/11/29 15:57:40;;;;;;;10.77;7.70;;;8.00;99.90;;;;;;4825246;29;20039;-77
2022/11/29 16:00:22;;;;;;;7.95;6.10;;;8.10;99.90;;;;;;4808819;29;20046;-75
2022/11/29 16:02:58;;;;;;;9.05;6.18;;;8.00;99.90;;;;;;4796314;30;20341;-78
2022/11/29 16:05:33;;;;;;;8.38;6.07;;;8.00;99.90;;;;;;4797449;30;20042;-74
2022/11/29 16:08:03;;;;;;;10.00;6.60;;;8.00;99.90;;;;;;4801538;30;20147;-75
2022/11/29 16:10:46;;;;;;;9.48;6.85;;;7.90;99.90;;;;;;4818697;29;20034;-75
2022/11/29 16:13:30;;;;;;;11.32;6.07;;;7.90;99.90;;;;;;4815931;29;20370;-75
2022/11/29 16:16:14;;;;;;;8.88;6.95;;;7.90;99.90;;;;;;4815947;29;20034;-76
2022/11/29 16:18:41;;;;;;;9.95;6.82;;;7.90;99.90;;;;;;4814976;29;20038;-74
2022/11/29 16:21:27;;;;;;;8.48;6.47;;;7.90;99.90;;;;;;4813906;29;20073;-74
2022/11/29 16:23:54;;;;;;;8.80;6.57;;;7.90;99.90;;;;;;4814020;29;20364;-74
2022/11/29 16:26:25;;;;;;;8.65;6.38;;;7.90;99.90;;;;;;4814880;29;20216;-73
2022/11/29 16:28:53;;;;;;;8.50;6.18;;;7.90;99.90;;;;;;4811939;29;20426;-72
2022/11/29 16:31:29;;;;;;;9.63;6.82;;;7.90;99.90;;;;;;4814075;29;20034;-74
2022/11/29 16:33:55;;;;;;;8.88;6.35;;;7.90;99.90;;;;;;4797041;29;20042;-73
2022/11/29 16:36:23;;;;;;;10.60;6.72;;;7.90;99.90;;;;;;4813841;29;20027;-75
2022/11/29 16:39:03;;;;;;;8.82;6.43;;;7.80;99.90;;;;;;4813706;29;20035;-74
2022/11/29 16:41:34;;;;;;;9.85;7.55;;;7.80;99.90;;;;;;4814340;29;20039;-73
2022/11/29 16:44:02;;;;;;;10.10;7.05;;;7.90;99.90;;;;;;4796071;30;20229;-72
2022/11/29 16:46:31;;;;;;;10.63;7.70;;;7.90;99.90;;;;;;4809664;29;20055;-74
2022/11/29 16:48:59;;;;;;;9.90;7.00;;;7.90;99.90;;;;;;4812746;29;20208;-72
2022/11/29 16:51:31;;;;;;;12.25;8.25;;;7.90;99.90;;;;;;4813950;29;20034;-73
2022/11/29 16:54:18;;;;;;;11.50;7.78;;;7.90;99.90;;;;;;4813623;29;20050;-74
2022/11/29 16:56:44;;;;;;;10.80;8.15;;;8.00;99.90;;;;;;4796913;29;20050;-71
2022/11/29 16:59:11;;;;;;;11.77;8.88;;;7.90;99.90;;;;;;4804625;29;20288;-73
2022/11/29 17:01:37;;;;;;;13.77;8.80;;;7.90;99.90;;;;;;4813123;29;20031;-73
2022/11/29 17:04:04;;;;;;;11.52;8.80;;;7.90;99.90;;;;;;4813582;29;20043;-73
2022/11/29 17:06:30;;;;;;;11.07;8.18;;;7.90;99.90;;;;;;4813550;29;20336;-72
2022/11/29 17:08:57;;;;;;;13.32;8.85;;;7.90;99.90;;;;;;4797074;29;20054;-73
2022/11/29 17:11:24;;;;;;;13.00;8.50;;;7.80;99.90;;;;;;4797299;29;20042;-73
2022/11/29 17:13:50;;;;;;;12.30;8.90;;;7.80;99.90;;;;;;4813245;29;20286;-74
2022/11/29 17:16:19;;;;;;;13.40;8.75;;;7.80;99.90;;;;;;4812353;29;20104;-74
2022/11/29 17:18:45;;;;;;;12.25;8.95;;;7.80;99.90;;;;;;4813232;29;20106;-73
2022/11/29 17:21:21;;;;;;;11.63;8.60;;;7.70;99.90;;;;;;4813391;29;20532;-75
2022/11/29 17:23:47;;;;;;;14.75;9.90;;;7.70;99.90;;;;;;4811612;29;20061;-76
2022/11/29 17:26:14;;;;;;;12.55;8.55;;;7.70;99.90;;;;;;4782314;29;20093;-74
2022/11/29 17:28:41;;;;;;;14.55;9.48;;;7.70;99.90;;;;;;4813272;29;20023;-74
2022/11/29 17:31:11;;;;;;;14.95;10.10;;;7.80;99.90;;;;;;4813619;29;20340;-75
2022/11/29 17:33:37;;;;;;;15.43;10.32;;;7.70;99.90;;;;;;4800353;29;20095;-75
2022/11/29 17:36:05;;;;;;;14.80;10.15;;;7.80;99.90;;;;;;4816962;29;20035;-74
2022/11/29 17:38:31;;;;;;;15.00;9.93;;;7.80;99.90;;;;;;4801033;29;20031;-73
2022/11/29 17:40:56;;;;;;;13.65;9.38;;;7.80;99.90;;;;;;4800207;29;20219;-73
2022/11/29 17:43:22;;;;;;;16.42;10.65;;;7.80;99.90;;;;;;4817122;29;20198;-75
2022/11/29 17:45:48;;;;;;;15.07;10.20;;;7.70;99.90;;;;;;4816569;29;20045;-74
2022/11/29 17:48:14;;;;;;;15.38;10.32;;;7.70;99.90;;;;;;4816614;29;20190;-72
2022/11/29 17:50:40;;;;;;;14.95;9.95;;;7.80;99.90;;;;;;4800206;29;20030;-73
2022/11/29 17:53:06;;;;;;;15.82;10.40;;;7.70;99.90;;;;;;4816652;29;20037;-72
2022/11/29 17:55:32;;;;;;;15.88;10.45;;;7.70;99.90;;;;;;4800717;29;20133;-73
2022/11/29 17:57:58;;;;;;;18.35;11.45;;;7.70;99.90;;;;;;4816291;29;20035;-74
2022/11/29 18:00:24;;;;;;;18.00;11.63;;;7.70;99.90;;;;;;4816891;29;20039;-74
2022/11/29 18:02:49;;;;;;;16.40;10.82;;;7.70;99.90;;;;;;4816112;29;20054;-74
2022/11/29 18:05:16;;;;;;;16.63;10.77;;;7.60;99.90;;;;;;4816451;29;20221;-74
2022/11/29 18:07:56;;;;;;;17.08;10.90;;;7.60;99.90;;;;;;4815996;29;20031;-74
2022/11/29 18:10:26;;;;;;;18.98;11.50;;;7.60;99.90;;;;;;4816805;29;20106;-74
2022/11/29 18:12:53;;;;;;;18.17;11.48;;;7.60;99.90;;;;;;4815114;29;20102;-74
2022/11/29 18:15:19;;;;;;;17.33;12.02;;;7.60;99.90;;;;;;4816540;29;20042;-74
2022/11/29 18:17:45;;;;;;;19.13;11.88;;;7.60;99.90;;;;;;4815974;29;20064;-75
2022/11/29 18:20:12;;;;;;;19.02;12.10;;;7.60;99.90;;;;;;4816305;29;20098;-75
2022/11/29 18:22:38;;;;;;;18.55;12.07;;;7.60;99.90;;;;;;4804785;29;20062;-74
2022/11/29 18:25:04;;;;;;;18.60;11.98;;;7.60;99.90;;;;;;4810240;29;20047;-73
2022/11/29 18:27:30;;;;;;;19.80;12.48;;;7.50;99.90;;;;;;4800075;29;20083;-74
2022/11/29 18:29:59;;;;;;;20.58;12.60;;;7.50;99.90;;;;;;4815478;29;20469;-78
2022/11/29 18:32:26;;;;;;;22.55;13.57;;;7.50;99.90;;;;;;4800744;29;20035;-73
2022/11/29 18:34:51;;;;;;;21.60;12.88;;;7.50;99.90;;;;;;4816315;29;20031;-75
2022/11/29 18:37:17;;;;;;;22.65;13.73;;;7.50;99.90;;;;;;4816083;29;20035;-75
2022/11/29 18:39:43;;;;;;;22.60;13.88;;;7.60;99.90;;;;;;4816283;29;20058;-73
2022/11/29 18:42:09;;;;;;;21.30;13.07;;;7.60;99.90;;;;;;4816295;29;20042;-73
2022/11/29 18:44:38;;;;;;;21.65;14.02;;;7.60;99.90;;;;;;4815159;29;20094;-73
2022/11/29 18:47:03;;;;;;;20.58;13.70;;;7.60;99.90;;;;;;4800444;29;20057;-73
2022/11/29 18:49:29;;;;;;;23.17;13.70;;;7.60;99.90;;;;;;4816190;29;20317;-71
2022/11/29 18:51:55;;;;;;;24.00;14.10;;;7.60;99.90;;;;;;4815317;29;20073;-73
2022/11/29 18:54:21;;;;;;;21.73;13.60;;;7.60;99.90;;;;;;4815653;29;20089;-73
2022/11/29 18:56:49;;;;;;;21.65;13.50;;;7.50;99.90;;;;;;4815487;29;20336;-73
2022/11/29 18:59:15;;;;;;;;;;;7.50;99.90;;;;;;4816331;29;20102;-74
2022/11/29 19:01:44;;;;;;;45.47;27.25;;;7.50;99.90;;;;;;4815234;29;20116;-74
2022/11/29 19:04:12;;;;;;;25.38;15.20;;;7.50;99.90;;;;;;4799796;29;20047;-72
2022/11/29 19:06:39;;;;;;;22.83;14.55;;;7.50;99.90;;;;;;4815285;29;20043;-73
2022/11/29 19:09:05;;;;;;;26.45;15.45;;;7.50;99.90;;;;;;4815531;29;20039;-74
2022/11/29 19:11:32;;;;;;;24.05;15.27;;;7.40;99.90;;;;;;4815807;29;20050;-74
2022/11/29 19:14:04;;;;;;;23.50;15.20;;;7.40;99.90;;;;;;4815104;29;20042;-74
2022/11/29 19:16:31;;;;;;;24.70;14.98;;;7.40;99.90;;;;;;4815264;29;20054;-72
2022/11/29 19:18:58;;;;;;;27.75;15.60;;;7.40;99.90;;;;;;4814750;29;20101;-73
2022/11/29 19:21:26;;;;;;;27.67;15.48;;;7.40;99.90;;;;;;4812846;29;20043;-72
2022/11/29 19:23:55;;;;;;;26.23;15.18;;;7.40;99.90;;;;;;4800094;29;20043;-72
2022/11/29 19:26:23;;;;;;;26.38;15.95;;;7.40;99.90;;;;;;4815289;29;20683;-74
2022/11/29 19:28:49;;;;;;;25.77;15.90;;;7.40;99.90;;;;;;4815179;29;20087;-73
2022/11/29 19:31:17;;;;;;;25.10;15.52;;;7.30;99.90;;;;;;4815235;29;20039;-71
2022/11/29 19:33:44;;;;;;;26.98;15.55;;;7.30;99.90;;;;;;4814721;29;20261;-74
2022/11/29 19:36:13;;;;;;;28.83;15.15;;;7.30;99.90;;;;;;4814994;29;20039;-73
2022/11/29 19:38:40;;;;;;;28.67;16.33;;;7.30;99.90;;;;;;4783483;29;20253;-73